Airfield :
LOGIN :

Register | Disclaimer

   EN    FR    IT 

 










Legend :    VFR   Marginal VFR   IFR   Intensive IFR   Very Intensive IFR
Visi :
Ceiling :
>= 8 km
>= 3000ft
5 to 8 km
1000 to 3000 ft
1500m to 5 km
500 to 1000 ft
800 to 1500m
200 to 500 ft
< 800m
< 200 ft
Symbols :   Thunderstorms  Fog  Heavy snow  Heavy precipitations  Wind > 20 kt
SIGMETs :     Misc.  Thunderstorms  Icing  Turbulence  Mountain Waves  Volcanic Ashes







- Airport Elevation : 5600 ft
- IATA code : SMV


LSZS - Samedan

CURRENT METAR :
  • 260550Z 05006KT 6000 RA SCT021 BKN032 03/03 Q1012 RMK A

EXPIRED METARs :
  • 260520Z AUTO 02006KT 5000 RA BKN023 04/03 Q1012 RERASN
  • 260450Z AUTO 02006KT 9999 -RA BKN014 //////TCU 04/03 Q1013
  • 260420Z AUTO VRB05KT 6000 -RA BKN024 //////TCU 05/04 Q1013
  • 260350Z AUTO 03005KT 350V060 9999 -RA BKN049 04/03 Q1013
  • 260320Z AUTO 04007KT 9999 -RA BKN050 03/02 Q1013

TAF TAF LSZS
Valid from the 26 at 06:00 until the 26 at 15:00 UTC


260525Z 2606/2615 02006KT 9999 -RA SCT014 SCT020 BKN025 TX06/2612Z
PROB30
TEMPO 2606/2610 4000 TSRA FEW010 SCT020CB BKN025
TEMPO 2606/2613 SHRA
TEMPO 2613/2615 SHRASN
ATIS : +41 81 834 93 24
No reported NOTAMs for that airfield.
2 SIGMETs reported for the Switzerland FIR (LSAS) :
 
Severe turbulence
LSAS SIGMET 3 VALID 260550/260750 LSZH
LSAS SWITZERLAND FIR SEV TURB OBS WI N4632 E00740 - N4618 E00816 - N4557 E00805 - N4550 E00704 - N4611 E00643 - N4632 E00740 FL200/300 STNR WKN=
Embedded thunderstorms
LSAS SIGMET 2 VALID 260445/260645 LSZH
LSAS SWITZERLAND FIR EMBD TS OBS WI N4641 E00836 - N4635 E00933 - N4545 E00902 - N4618 E00815 - N4641 E00836 TOP FL240 STNR NC=



MET'MAP, your aeronautical weather chart ! - Copyright ORBIFLY December 2007 - Disclaimer

ORBIFLY MET'MAP TEAM :

Programming & Development : Alexandra Zaïnal
Concept & Development : Baudouin d'Aumeries
Co-Development & Prog : Marc-Olivier Méhu
Technical & hardware support : Manuel Goepfert

Contact : metmap@orbifly.com




SOURCES & CREDITS :

   NOAA